Time;durP1;ratioP1;P1;durP2;ratioP2;P2;SDS_P1;SDS_P2;PMS_P1;PMS_P2;Temp;Humidity;BMP_temperature;BMP_pressure;BME280_temperature;BME280_humidity;BME280_pressure;Samples;Min_cycle;Max_cycle;Signal;HPM_P1;HPM_P2
2022/07/16 00:01:59;;;;;;;6.03;5.43;;;15.20;99.90;;;;;;5005501;28;20224;-88
2022/07/16 00:04:24;;;;;;;6.63;6.00;;;15.20;99.90;;;;;;4984899;28;20436;-87
2022/07/16 00:06:50;;;;;;;7.40;6.17;;;15.10;99.90;;;;;;5002392;28;20636;-88
2022/07/16 00:09:16;;;;;;;8.70;6.30;;;15.10;99.90;;;;;;4989170;28;20192;-88
2022/07/16 00:11:41;;;;;;;6.50;5.70;;;15.20;99.90;;;;;;4984220;28;20557;-88
2022/07/16 00:14:07;;;;;;;6.30;5.73;;;14.90;99.90;;;;;;4987821;28;20189;-87
2022/07/16 00:16:32;;;;;;;6.73;6.10;;;14.90;99.90;;;;;;4999798;28;20185;-88
2022/07/16 00:19:16;;;;;;;6.70;5.87;;;14.90;99.90;;;;;;5004575;28;20184;-87
2022/07/16 00:21:46;;;;;;;6.97;6.30;;;14.80;99.90;;;;;;5003948;28;20209;-87
2022/07/16 00:24:12;;;;;;;6.73;6.13;;;14.80;99.90;;;;;;4988106;28;20444;-87
2022/07/16 00:26:37;;;;;;;7.00;6.20;;;14.70;99.90;;;;;;5018591;28;20446;-87
2022/07/16 00:29:03;;;;;;;8.93;5.67;;;14.80;99.90;;;;;;4988590;28;20211;-87
2022/07/16 00:31:28;;;;;;;6.50;5.93;;;14.70;99.90;;;;;;5022247;28;20196;-87
2022/07/16 00:33:54;;;;;;;6.23;5.50;;;14.90;99.90;;;;;;4993859;28;20223;-87
2022/07/16 00:36:19;;;;;;;7.07;6.07;;;14.70;99.90;;;;;;4990597;28;20188;-87
2022/07/16 00:38:45;;;;;;;6.30;5.70;;;14.70;99.90;;;;;;4989552;28;20184;-87
2022/07/16 00:41:16;;;;;;;6.03;5.43;;;15.20;99.90;;;;;;4990705;28;20184;-87
2022/07/16 00:43:53;;;;;;;5.93;5.40;;;14.70;99.90;;;;;;4992041;28;20189;-87
2022/07/16 00:46:19;;;;;;;5.47;4.93;;;14.80;99.90;;;;;;5002245;28;21054;-88
2022/07/16 00:48:45;;;;;;;6.17;5.67;;;14.80;99.90;;;;;;4987246;28;20535;-88
2022/07/16 00:51:11;;;;;;;6.23;5.73;;;14.80;99.90;;;;;;4991585;28;20185;-87
2022/07/16 00:53:38;;;;;;;6.57;5.80;;;14.90;99.90;;;;;;4991371;28;20456;-87
2022/07/16 00:56:09;;;;;;;6.50;5.80;;;14.80;99.90;;;;;;4992637;28;20436;-87
2022/07/16 00:58:37;;;;;;;6.67;6.00;;;15.00;99.90;;;;;;4985936;28;20803;-87
2022/07/16 01:01:03;;;;;;;6.20;5.70;;;15.00;99.90;;;;;;4994385;28;20526;-87
2022/07/16 01:03:30;;;;;;;6.60;6.00;;;15.10;99.90;;;;;;5006210;28;20570;-87
2022/07/16 01:05:57;;;;;;;6.83;5.90;;;15.10;99.90;;;;;;4992128;28;20448;-87
2022/07/16 01:08:22;;;;;;;7.20;6.60;;;15.10;99.90;;;;;;4988568;28;20822;-87
2022/07/16 01:10:49;;;;;;;7.27;6.40;;;15.10;99.90;;;;;;5008203;28;20453;-87
2022/07/16 01:13:16;;;;;;;8.33;7.33;;;15.20;99.90;;;;;;4990144;28;20193;-86
2022/07/16 01:15:41;;;;;;;7.93;7.23;;;14.90;99.90;;;;;;4990236;28;21058;-87
2022/07/16 01:18:07;;;;;;;7.30;6.60;;;14.80;99.90;;;;;;5018450;28;20436;-87
2022/07/16 01:20:33;;;;;;;7.30;6.43;;;14.80;99.90;;;;;;4994429;28;20232;-88
2022/07/16 01:22:59;;;;;;;7.90;7.20;;;14.60;99.90;;;;;;4987166;28;20220;-87
2022/07/16 01:25:26;;;;;;;7.60;6.90;;;14.60;99.90;;;;;;4991212;28;20239;-87
2022/07/16 01:28:06;;;;;;;6.80;6.10;;;14.60;99.90;;;;;;4988802;28;21105;-88
2022/07/16 01:30:32;;;;;;;7.63;6.43;;;14.80;99.90;;;;;;4990948;28;20439;-87
2022/07/16 01:32:57;;;;;;;6.97;6.30;;;14.50;99.90;;;;;;4991679;28;20443;-87
2022/07/16 01:35:23;;;;;;;6.70;6.00;;;14.50;99.90;;;;;;4996251;28;20643;-87
2022/07/16 01:37:48;;;;;;;7.40;6.70;;;14.30;99.90;;;;;;5009325;28;20188;-87
2022/07/16 01:40:14;;;;;;;8.97;5.90;;;14.30;99.90;;;;;;5005565;28;20212;-87
2022/07/16 01:42:43;;;;;;;7.00;6.30;;;14.30;99.90;;;;;;4992608;28;20314;-87
2022/07/16 01:45:09;;;;;;;7.20;5.77;;;14.50;99.90;;;;;;4994925;28;20573;-88
2022/07/16 01:47:35;;;;;;;6.77;5.73;;;14.40;99.90;;;;;;4995169;28;20447;-88
2022/07/16 01:50:00;;;;;;;9.93;6.53;;;14.40;99.90;;;;;;4995246;28;20955;-87
2022/07/16 01:52:26;;;;;;;6.87;6.20;;;14.40;99.90;;;;;;5007807;28;20272;-88
2022/07/16 01:54:53;;;;;;;6.90;6.30;;;14.40;99.90;;;;;;5010511;28;20181;-88
2022/07/16 01:57:20;;;;;;;6.57;5.97;;;14.30;99.90;;;;;;5013901;28;20239;-88
2022/07/16 01:59:49;;;;;;;9.70;6.43;;;14.10;99.90;;;;;;5014209;28;20524;-88
2022/07/16 02:02:14;;;;;;;6.57;5.97;;;14.00;99.90;;;;;;5009177;28;20512;-87
2022/07/16 02:04:41;;;;;;;6.97;6.37;;;14.40;99.90;;;;;;4993668;28;20478;-88
2022/07/16 02:07:07;;;;;;;6.57;5.97;;;13.70;99.90;;;;;;5030675;28;20429;-88
2022/07/16 02:09:33;;;;;;;6.80;6.20;;;13.80;99.90;;;;;;5004007;28;20969;-87
2022/07/16 02:11:59;;;;;;;6.40;6.00;;;14.00;99.90;;;;;;4992444;28;20181;-87
2022/07/16 02:14:24;;;;;;;6.60;5.90;;;14.00;99.90;;;;;;4994712;28;20427;-88
2022/07/16 02:16:52;;;;;;;6.83;6.30;;;14.00;99.90;;;;;;4992224;28;20234;-87
2022/07/16 02:19:20;;;;;;;6.37;5.87;;;13.90;99.90;;;;;;4993163;28;20285;-87
2022/07/16 02:21:46;;;;;;;7.33;6.73;;;13.90;99.90;;;;;;4986129;28;20468;-87
2022/07/16 02:24:26;;;;;;;8.67;6.50;;;13.80;99.90;;;;;;4990981;28;20494;-87
2022/07/16 02:26:52;;;;;;;6.20;5.70;;;13.80;99.90;;;;;;5004271;28;20177;-88
2022/07/16 02:29:31;;;;;;;6.70;6.10;;;13.80;99.90;;;;;;5009760;28;20505;-87
2022/07/16 02:31:57;;;;;;;7.60;6.00;;;13.70;99.90;;;;;;4996034;28;20548;-87
2022/07/16 02:34:22;;;;;;;7.37;6.43;;;13.80;99.90;;;;;;5007159;28;20439;-87
2022/07/16 02:36:48;;;;;;;6.47;5.87;;;13.80;99.90;;;;;;4991867;28;20188;-87
2022/07/16 02:39:13;;;;;;;7.40;6.63;;;13.70;99.90;;;;;;5021753;28;20205;-87
2022/07/16 02:41:39;;;;;;;7.17;6.57;;;13.60;99.90;;;;;;4990242;28;20204;-86
2022/07/16 02:44:05;;;;;;;6.87;6.37;;;13.60;99.90;;;;;;4992106;28;20189;-87
2022/07/16 02:46:30;;;;;;;7.07;6.47;;;13.60;99.90;;;;;;4992877;28;20590;-87
2022/07/16 02:48:56;;;;;;;6.97;6.20;;;13.60;99.90;;;;;;4992339;28;20193;-87
2022/07/16 02:51:21;;;;;;;7.23;6.63;;;13.50;99.90;;;;;;4994226;28;20248;-88
2022/07/16 02:53:47;;;;;;;7.80;5.87;;;13.60;99.90;;;;;;5009059;28;20238;-87
2022/07/16 02:56:13;;;;;;;6.53;6.03;;;13.50;99.90;;;;;;4990977;28;20734;-87
2022/07/16 02:58:38;;;;;;;9.93;6.57;;;13.50;99.90;;;;;;4994747;28;20215;-87
2022/07/16 03:01:04;;;;;;;7.03;6.43;;;13.50;99.90;;;;;;4989818;28;20628;-87
2022/07/16 03:03:29;;;;;;;8.60;6.60;;;13.60;99.90;;;;;;5007645;28;20213;-88
2022/07/16 03:05:56;;;;;;;6.33;5.73;;;13.60;99.90;;;;;;4985880;28;20436;-87
2022/07/16 03:08:22;;;;;;;6.77;6.17;;;13.70;99.90;;;;;;5025986;28;21024;-88
2022/07/16 03:10:47;;;;;;;6.63;6.13;;;13.60;99.90;;;;;;4992072;28;20200;-87
2022/07/16 03:13:13;;;;;;;6.97;6.40;;;13.70;99.90;;;;;;4992602;28;20181;-87
2022/07/16 03:15:39;;;;;;;6.27;5.77;;;13.60;99.90;;;;;;4992104;28;20193;-87
2022/07/16 03:18:04;;;;;;;6.07;5.57;;;13.60;99.90;;;;;;4990313;28;20188;-87
2022/07/16 03:20:30;;;;;;;7.03;6.43;;;13.50;99.90;;;;;;4989336;28;20701;-87
2022/07/16 03:22:55;;;;;;;9.00;6.20;;;13.50;99.90;;;;;;4992367;28;20212;-87
2022/07/16 03:25:21;;;;;;;6.40;5.80;;;13.50;99.90;;;;;;5025355;28;20181;-87
2022/07/16 03:27:46;;;;;;;6.03;5.53;;;13.40;99.90;;;;;;4994827;28;20210;-87
2022/07/16 03:30:14;;;;;;;6.93;6.33;;;13.50;99.90;;;;;;4989700;28;20181;-87
2022/07/16 03:32:39;;;;;;;7.07;6.40;;;13.20;99.90;;;;;;4991904;28;20209;-87
2022/07/16 03:35:06;;;;;;;7.20;6.40;;;13.10;99.90;;;;;;4990757;28;20471;-87
2022/07/16 03:37:32;;;;;;;7.00;6.40;;;13.00;99.90;;;;;;4992852;28;20191;-87
2022/07/16 03:39:58;;;;;;;10.43;6.50;;;12.80;99.90;;;;;;4991437;28;20439;-87
2022/07/16 03:42:29;;;;;;;7.17;6.47;;;12.70;99.90;;;;;;4989648;28;21076;-87
2022/07/16 03:44:54;;;;;;;7.20;6.50;;;12.70;99.90;;;;;;4991146;28;20671;-87
2022/07/16 03:47:20;;;;;;;6.90;6.30;;;12.70;99.90;;;;;;4990684;28;20483;-87
2022/07/16 03:49:45;;;;;;;6.30;5.70;;;12.80;99.90;;;;;;4993776;28;20215;-87
2022/07/16 03:52:11;;;;;;;7.00;5.77;;;12.80;99.90;;;;;;5005741;28;20643;-86
2022/07/16 03:54:52;;;;;;;6.83;6.23;;;12.80;99.90;;;;;;5004593;28;20651;-86
2022/07/16 03:57:18;;;;;;;7.57;5.97;;;12.70;99.90;;;;;;5009213;28;20184;-86
2022/07/16 03:59:43;;;;;;;8.30;6.50;;;12.70;99.90;;;;;;4991312;28;20521;-87
2022/07/16 04:02:09;;;;;;;6.57;5.93;;;12.90;99.90;;;;;;5027430;28;20219;-86
2022/07/16 04:05:22;;;;;;;7.00;6.37;;;13.10;99.90;;;;;;4986579;28;20256;-86
2022/07/16 04:07:48;;;;;;;6.90;6.40;;;13.50;99.90;;;;;;4993560;28;20273;-85
2022/07/16 04:10:13;;;;;;;7.43;6.73;;;13.00;99.90;;;;;;4987077;28;20535;-88
2022/07/16 04:12:39;;;;;;;12.67;6.87;;;13.20;99.90;;;;;;4990888;28;20235;-87
2022/07/16 04:15:05;;;;;;;7.77;6.30;;;13.20;99.90;;;;;;4989110;28;20181;-86
2022/07/16 04:17:30;;;;;;;7.23;6.63;;;13.30;99.90;;;;;;4998804;28;20279;-86
2022/07/16 04:19:56;;;;;;;6.97;6.40;;;13.20;99.90;;;;;;4996784;28;20179;-86
2022/07/16 04:22:21;;;;;;;10.30;7.47;;;13.10;99.90;;;;;;5025226;28;20236;-86
2022/07/16 04:24:49;;;;;;;9.80;7.30;;;13.00;99.90;;;;;;4991602;28;20180;-86
2022/07/16 04:27:32;;;;;;;7.50;6.90;;;13.10;99.90;;;;;;5007697;28;20212;-86
2022/07/16 04:30:00;;;;;;;7.23;6.57;;;13.20;99.90;;;;;;4989524;28;20441;-87
2022/07/16 04:32:28;;;;;;;8.20;6.83;;;13.10;99.90;;;;;;4995039;28;20880;-87
2022/07/16 04:34:53;;;;;;;8.23;6.97;;;13.10;99.90;;;;;;5003809;28;20567;-87
2022/07/16 04:37:19;;;;;;;8.00;7.30;;;13.00;99.90;;;;;;5006671;28;20440;-87
2022/07/16 04:39:44;;;;;;;6.77;6.23;;;12.90;99.90;;;;;;4992932;28;20267;-88
2022/07/16 04:42:10;;;;;;;6.90;6.30;;;12.90;99.90;;;;;;4988974;28;20216;-87
2022/07/16 04:44:36;;;;;;;7.77;6.40;;;13.00;99.90;;;;;;4989707;28;20204;-87
2022/07/16 04:47:02;;;;;;;7.03;6.43;;;13.10;99.90;;;;;;4991942;28;20288;-88
2022/07/16 04:49:27;;;;;;;6.73;6.13;;;13.20;99.90;;;;;;5007052;28;20636;-87
2022/07/16 04:51:53;;;;;;;12.73;7.57;;;13.30;99.90;;;;;;4993208;28;20238;-87
2022/07/16 04:54:18;;;;;;;6.53;5.93;;;13.40;99.90;;;;;;4989133;28;20193;-87
2022/07/16 04:56:44;;;;;;;7.67;6.90;;;13.50;99.90;;;;;;4988819;28;20239;-87
2022/07/16 04:59:12;;;;;;;7.60;7.00;;;13.50;99.90;;;;;;4990191;28;20240;-87
2022/07/16 05:02:56;;;;;;;8.00;6.63;;;13.60;99.90;;;;;;4990160;28;20674;-88
2022/07/16 05:04:39;;;;;;;7.37;6.47;;;13.70;99.90;;;;;;5004621;28;20477;-87
2022/07/16 05:07:05;;;;;;;7.13;6.40;;;13.80;99.90;;;;;;5007924;28;20416;-87
2022/07/16 05:09:30;;;;;;;6.60;6.00;;;13.90;99.90;;;;;;4991961;28;20201;-87
2022/07/16 05:11:56;;;;;;;7.30;6.70;;;14.00;99.90;;;;;;4986551;28;20275;-87
2022/07/16 05:14:21;;;;;;;8.63;6.93;;;14.10;99.90;;;;;;4987045;28;20199;-88
2022/07/16 05:16:47;;;;;;;8.03;6.47;;;14.40;99.90;;;;;;4985533;28;20177;-87
2022/07/16 05:19:12;;;;;;;6.63;6.03;;;14.10;99.90;;;;;;4988752;28;20356;-87
2022/07/16 05:21:38;;;;;;;7.80;7.20;;;14.30;99.90;;;;;;4990689;28;20268;-87
2022/07/16 05:24:04;;;;;;;7.87;7.17;;;14.40;99.90;;;;;;4993245;28;20319;-87
2022/07/16 05:26:29;;;;;;;8.23;7.00;;;14.40;99.90;;;;;;4985298;28;20246;-88
2022/07/16 05:28:55;;;;;;;7.70;6.90;;;14.50;99.90;;;;;;4984626;28;20207;-86
2022/07/16 05:31:20;;;;;;;7.50;6.60;;;14.50;99.90;;;;;;4986418;28;20181;-88
2022/07/16 05:33:46;;;;;;;7.60;7.00;;;14.50;99.90;;;;;;4992759;28;20603;-87
2022/07/16 05:36:12;;;;;;;8.23;6.70;;;14.50;99.90;;;;;;4985612;28;20181;-87
2022/07/16 05:38:38;;;;;;;8.53;7.73;;;15.00;99.90;;;;;;4991589;28;20268;-87
2022/07/16 05:41:03;;;;;;;7.73;6.37;;;14.70;99.90;;;;;;4984021;28;20452;-87
2022/07/16 05:43:29;;;;;;;7.47;6.80;;;14.90;99.90;;;;;;5004855;28;20240;-88
2022/07/16 05:45:54;;;;;;;6.97;6.37;;;14.80;99.90;;;;;;4986742;28;20286;-87
2022/07/16 05:48:20;;;;;;;7.83;6.30;;;14.70;99.90;;;;;;4991608;28;20200;-87
2022/07/16 05:50:45;;;;;;;7.43;6.73;;;14.50;99.90;;;;;;5022090;28;20639;-88
2022/07/16 05:53:11;;;;;;;6.63;6.03;;;14.70;99.90;;;;;;5007026;28;20272;-87
2022/07/16 05:55:36;;;;;;;7.43;6.83;;;14.80;99.90;;;;;;4986020;28;20189;-88
2022/07/16 05:58:02;;;;;;;8.10;6.40;;;15.00;99.90;;;;;;4986700;28;20209;-88
2022/07/16 06:00:28;;;;;;;7.50;6.80;;;15.00;99.90;;;;;;5007523;28;20280;-87
2022/07/16 06:02:53;;;;;;;7.30;6.23;;;15.00;99.90;;;;;;4989046;28;20582;-87
2022/07/16 06:05:19;;;;;;;8.13;7.27;;;15.10;99.90;;;;;;4986730;28;20177;-87
2022/07/16 06:07:44;;;;;;;7.10;6.50;;;15.20;99.90;;;;;;4999204;28;21429;-87
2022/07/16 06:10:10;;;;;;;7.00;6.37;;;15.20;99.90;;;;;;4985490;28;20671;-87
2022/07/16 06:12:35;;;;;;;7.00;6.40;;;15.30;99.90;;;;;;4985600;28;20607;-87
2022/07/16 06:15:01;;;;;;;7.30;6.70;;;15.50;99.90;;;;;;4993591;28;20205;-87
2022/07/16 06:17:26;;;;;;;7.10;6.50;;;15.30;99.90;;;;;;4990136;28;20304;-87
2022/07/16 06:19:52;;;;;;;6.70;6.10;;;15.40;99.90;;;;;;4994942;28;20180;-87
2022/07/16 06:22:17;;;;;;;7.67;6.53;;;15.60;99.90;;;;;;4992569;28;20699;-87
2022/07/16 06:24:43;;;;;;;8.10;6.33;;;15.70;99.90;;;;;;4988911;28;20740;-86
2022/07/16 06:27:08;;;;;;;7.13;6.63;;;15.80;99.90;;;;;;4991153;28;20184;-89
2022/07/16 06:29:34;;;;;;;7.73;6.93;;;15.80;99.90;;;;;;4988918;28;20197;-88
2022/07/16 06:31:59;;;;;;;7.10;6.50;;;16.00;99.90;;;;;;5005557;28;20183;-87
2022/07/16 06:34:25;;;;;;;7.73;6.57;;;16.10;99.90;;;;;;4979381;28;20185;-87
2022/07/16 06:36:53;;;;;;;8.73;6.30;;;16.20;99.90;;;;;;4988282;28;20193;-87
2022/07/16 06:39:18;;;;;;;6.13;5.63;;;16.80;99.90;;;;;;4989767;28;20288;-87
2022/07/16 06:41:44;;;;;;;6.63;5.33;;;16.40;99.90;;;;;;5001474;28;21167;-87
2022/07/16 06:44:15;;;;;;;6.20;5.70;;;16.40;99.90;;;;;;4988996;28;20219;-87
2022/07/16 06:46:40;;;;;;;6.60;5.87;;;16.50;99.90;;;;;;4984589;28;20260;-88
2022/07/16 06:49:15;;;;;;;7.00;6.40;;;16.60;99.90;;;;;;4978340;28;20496;-87
2022/07/16 06:51:41;;;;;;;6.37;5.73;;;16.70;99.90;;;;;;5010323;28;20181;-87
2022/07/16 06:54:07;;;;;;;6.60;5.53;;;16.80;99.90;;;;;;4978913;28;20521;-87
2022/07/16 06:56:32;;;;;;;6.83;5.37;;;16.80;99.70;;;;;;4972608;28;20523;-88
2022/07/16 06:58:58;;;;;;;5.20;4.80;;;17.10;99.60;;;;;;4998944;28;20428;-88
2022/07/16 07:01:24;;;;;;;7.23;5.87;;;16.90;98.40;;;;;;4974592;28;20881;-87
2022/07/16 07:03:50;;;;;;;7.00;5.17;;;17.00;98.40;;;;;;4974060;28;20192;-87
2022/07/16 07:06:16;;;;;;;5.10;4.47;;;17.00;96.00;;;;;;4984849;28;20272;-87
2022/07/16 07:08:41;;;;;;;6.23;5.30;;;17.10;97.00;;;;;;4969425;28;20848;-87
2022/07/16 07:11:07;;;;;;;5.23;4.80;;;17.30;96.00;;;;;;4999665;28;20185;-86
2022/07/16 07:13:33;;;;;;;5.50;5.00;;;17.30;94.90;;;;;;4975843;28;20185;-87
2022/07/16 07:15:58;;;;;;;6.70;6.10;;;17.80;96.10;;;;;;4995841;28;20674;-87
2022/07/16 07:18:25;;;;;;;5.63;5.10;;;17.60;96.20;;;;;;4969688;28;20539;-87
2022/07/16 07:20:51;;;;;;;7.17;5.47;;;17.80;95.60;;;;;;4972889;28;20466;-87
2022/07/16 07:23:21;;;;;;;7.00;5.50;;;17.80;96.10;;;;;;4996402;28;20583;-87
2022/07/16 07:25:46;;;;;;;8.20;4.60;;;17.90;95.70;;;;;;4986997;28;20867;-87
2022/07/16 07:28:12;;;;;;;5.13;4.63;;;18.50;94.90;;;;;;4977812;28;20182;-87
2022/07/16 07:30:37;;;;;;;5.07;4.60;;;18.40;94.70;;;;;;4979896;28;20453;-86
2022/07/16 07:33:03;;;;;;;5.70;5.20;;;18.30;94.40;;;;;;4977182;28;20187;-88
2022/07/16 07:35:28;;;;;;;6.70;4.70;;;18.60;94.30;;;;;;4974796;28;20248;-87
2022/07/16 07:37:54;;;;;;;6.27;4.73;;;18.70;93.90;;;;;;4977271;28;20625;-87
2022/07/16 07:40:19;;;;;;;4.93;4.50;;;18.90;93.30;;;;;;5010133;28;20188;-87
2022/07/16 07:42:45;;;;;;;5.03;4.63;;;18.90;93.70;;;;;;4980664;28;20223;-88
2022/07/16 07:45:11;;;;;;;6.43;5.70;;;19.00;93.60;;;;;;4980688;28;20192;-88
2022/07/16 07:47:37;;;;;;;6.57;5.47;;;18.90;93.80;;;;;;4991084;28;20189;-88
2022/07/16 07:50:05;;;;;;;4.80;4.40;;;19.10;94.00;;;;;;4975876;28;20184;-87
2022/07/16 07:52:32;;;;;;;5.60;5.13;;;19.30;92.80;;;;;;4971875;28;20451;-88
2022/07/16 07:54:58;;;;;;;5.50;4.90;;;19.60;92.50;;;;;;4972049;28;20479;-88
2022/07/16 07:57:24;;;;;;;5.57;5.07;;;19.70;92.40;;;;;;4973973;28;20436;-87
2022/07/16 07:59:50;;;;;;;9.97;5.03;;;19.60;93.10;;;;;;4974842;28;20726;-87
2022/07/16 08:02:15;;;;;;;7.17;5.10;;;20.00;92.10;;;;;;4987242;28;20698;-88
2022/07/16 08:04:41;;;;;;;5.47;4.13;;;20.00;92.10;;;;;;4994668;28;21526;-88
2022/07/16 08:07:07;;;;;;;4.87;4.47;;;20.20;92.80;;;;;;4975411;28;20189;-86
2022/07/16 08:09:32;;;;;;;6.07;3.83;;;20.40;92.40;;;;;;4973923;28;20198;-87
2022/07/16 08:11:58;;;;;;;4.90;4.40;;;21.10;91.90;;;;;;4977885;28;20181;-87
2022/07/16 08:14:25;;;;;;;5.90;3.70;;;20.80;91.10;;;;;;4975423;28;20351;-86
2022/07/16 08:16:51;;;;;;;4.80;3.57;;;20.90;90.20;;;;;;4994914;28;20178;-86
2022/07/16 08:19:17;;;;;;;4.37;3.97;;;21.00;88.00;;;;;;4974765;28;20468;-89
2022/07/16 08:21:42;;;;;;;3.93;3.63;;;21.20;90.00;;;;;;4985741;28;20575;-88
2022/07/16 08:26:52;;;;;;;5.33;3.30;;;21.30;84.30;;;;;;4993360;28;20704;-88
2022/07/16 08:29:17;;;;;;;3.90;3.10;;;21.60;83.10;;;;;;4973303;28;20439;-88
2022/07/16 08:31:43;;;;;;;6.60;3.50;;;21.60;86.00;;;;;;4975435;28;20812;-88
2022/07/16 08:34:08;;;;;;;3.63;3.30;;;21.70;85.90;;;;;;4994287;28;20184;-88
2022/07/16 08:36:34;;;;;;;3.10;2.80;;;21.70;84.90;;;;;;4979518;28;20196;-88
2022/07/16 08:38:59;;;;;;;6.00;3.20;;;21.70;83.00;;;;;;4976847;28;20276;-88
2022/07/16 08:41:26;;;;;;;5.40;2.50;;;21.60;82.80;;;;;;4973331;28;20182;-87
2022/07/16 08:43:52;;;;;;;6.60;3.73;;;21.80;79.00;;;;;;5021241;28;20215;-88
2022/07/16 08:46:21;;;;;;;3.40;3.00;;;21.70;77.60;;;;;;4978473;28;20435;-88
2022/07/16 08:48:51;;;;;;;7.57;3.07;;;22.00;82.00;;;;;;4975690;28;20460;-88
2022/07/16 08:51:22;;;;;;;4.20;3.50;;;21.50;81.30;;;;;;4973406;28;20483;-88
2022/07/16 08:53:50;;;;;;;3.43;2.90;;;21.60;79.20;;;;;;4972367;28;20452;-88
2022/07/16 08:56:17;;;;;;;3.67;3.20;;;21.30;76.00;;;;;;4993596;28;20647;-88
2022/07/16 08:58:43;;;;;;;5.50;3.10;;;21.00;79.60;;;;;;4989509;28;20539;-88
2022/07/16 09:01:08;;;;;;;4.13;2.70;;;21.20;81.10;;;;;;4972456;28;20451;-87
2022/07/16 09:03:34;;;;;;;5.67;2.80;;;21.50;76.70;;;;;;4985088;28;20833;-87
2022/07/16 09:06:01;;;;;;;4.30;2.63;;;21.70;83.00;;;;;;4978677;28;20269;-88
2022/07/16 09:08:26;;;;;;;3.30;2.50;;;21.80;75.10;;;;;;4994079;28;20193;-87
2022/07/16 09:10:52;;;;;;;2.83;2.63;;;21.90;76.10;;;;;;4971638;28;20470;-88
2022/07/16 09:13:17;;;;;;;3.33;2.90;;;22.00;76.40;;;;;;4977098;28;20201;-88
2022/07/16 09:15:44;;;;;;;3.33;3.03;;;22.20;75.80;;;;;;4971034;28;20184;-88
2022/07/16 09:18:28;;;;;;;3.60;3.00;;;21.80;74.40;;;;;;4991493;28;20195;-88
2022/07/16 09:21:02;;;;;;;3.57;3.23;;;21.70;76.10;;;;;;4990280;28;20582;-88
2022/07/16 09:23:29;;;;;;;3.80;3.47;;;22.00;75.20;;;;;;4973297;28;20626;-87
2022/07/16 09:26:06;;;;;;;3.33;2.90;;;21.60;72.90;;;;;;4975478;28;20937;-87
2022/07/16 09:28:43;;;;;;;3.73;3.23;;;21.70;74.50;;;;;;4968384;28;20480;-89
2022/07/16 09:31:38;;;;;;;7.80;3.80;;;21.80;79.90;;;;;;4973464;28;20462;-89
2022/07/16 09:34:11;;;;;;;7.37;4.00;;;22.10;74.70;;;;;;4983738;28;20447;-90
2022/07/16 09:36:54;;;;;;;6.03;3.13;;;22.50;78.50;;;;;;4977054;28;20455;-88
2022/07/16 09:39:20;;;;;;;5.50;3.63;;;22.80;75.30;;;;;;4990634;28;20424;-88
2022/07/16 09:41:58;;;;;;;5.40;3.60;;;22.20;70.80;;;;;;4991702;28;20519;-88
2022/07/16 09:44:26;;;;;;;3.27;2.97;;;22.20;76.30;;;;;;5008608;28;20501;-88
2022/07/16 09:47:04;;;;;;;9.10;3.60;;;22.50;77.60;;;;;;4982172;28;20964;-87
2022/07/16 09:49:36;;;;;;;4.23;3.10;;;22.80;77.20;;;;;;4990680;28;20448;-89
2022/07/16 09:52:05;;;;;;;3.50;3.13;;;23.10;74.50;;;;;;4990522;28;20431;-87
2022/07/16 09:54:38;;;;;;;4.50;3.33;;;23.40;76.40;;;;;;4988772;28;20531;-88
2022/07/16 09:57:18;;;;;;;3.83;3.20;;;23.40;77.30;;;;;;4990081;28;20443;-87
2022/07/16 09:59:47;;;;;;;3.23;2.83;;;23.60;72.60;;;;;;4988767;28;20515;-88
2022/07/16 10:02:13;;;;;;;4.80;2.80;;;23.70;74.90;;;;;;4991709;28;20980;-88
2022/07/16 10:04:40;;;;;;;2.90;2.67;;;23.90;72.70;;;;;;4985344;28;20454;-88
2022/07/16 10:07:06;;;;;;;4.37;2.97;;;23.70;72.00;;;;;;4984623;28;20452;-87
2022/07/16 10:09:32;;;;;;;3.03;2.67;;;24.00;74.40;;;;;;4986634;28;20458;-88
2022/07/16 10:12:08;;;;;;;7.00;2.77;;;23.50;68.10;;;;;;4992154;28;20203;-87
2022/07/16 10:14:41;;;;;;;3.00;2.80;;;23.40;67.60;;;;;;5005955;28;20439;-87
2022/07/16 10:17:35;;;;;;;4.53;2.77;;;23.40;66.70;;;;;;4990793;28;20443;-88
2022/07/16 10:20:09;;;;;;;4.13;2.77;;;23.60;64.40;;;;;;4992917;28;20518;-88
2022/07/16 10:22:37;;;;;;;2.93;2.50;;;23.70;68.40;;;;;;4986650;28;20499;-87
2022/07/16 10:25:26;;;;;;;3.50;2.87;;;23.80;65.80;;;;;;4989157;28;20547;-87
2022/07/16 10:27:53;;;;;;;2.87;2.57;;;23.70;68.00;;;;;;5004659;28;20442;-88
2022/07/16 10:30:25;;;;;;;11.80;2.93;;;24.00;66.40;;;;;;5005100;28;20424;-88
2022/07/16 10:33:03;;;;;;;3.23;2.83;;;24.00;66.10;;;;;;4990279;28;21007;-88
2022/07/16 10:35:34;;;;;;;2.57;2.37;;;23.90;70.00;;;;;;5000767;28;20427;-88
2022/07/16 10:38:07;;;;;;;3.20;2.60;;;24.20;69.30;;;;;;4982354;28;20448;-87
2022/07/16 10:40:35;;;;;;;4.83;2.53;;;24.00;66.30;;;;;;4997906;28;20560;-86
2022/07/16 10:43:21;;;;;;;3.03;2.37;;;24.30;69.50;;;;;;5025633;28;20479;-88
2022/07/16 10:45:55;;;;;;;2.90;2.40;;;24.70;67.40;;;;;;4988060;28;20534;-87
2022/07/16 10:48:27;;;;;;;4.67;2.77;;;24.80;67.50;;;;;;5010271;28;20431;-88
2022/07/16 10:51:22;;;;;;;2.47;2.20;;;24.50;65.20;;;;;;4984313;28;20456;-90
2022/07/16 10:53:57;;;;;;;3.70;2.40;;;24.80;70.00;;;;;;4992795;28;21985;-88
2022/07/16 10:56:49;;;;;;;4.17;2.60;;;25.00;63.60;;;;;;5003928;28;20524;-89
2022/07/16 10:59:22;;;;;;;3.87;2.80;;;24.40;60.90;;;;;;4995311;28;20475;-87
2022/07/16 11:01:54;;;;;;;2.67;2.30;;;23.80;59.70;;;;;;5014134;28;20436;-90
2022/07/16 11:04:39;;;;;;;3.33;2.30;;;23.60;60.30;;;;;;4988466;28;20442;-89
2022/07/16 11:07:13;;;;;;;2.40;2.20;;;23.90;62.20;;;;;;4984760;28;20436;-89
2022/07/16 11:09:50;;;;;;;2.60;2.40;;;24.30;65.00;;;;;;5006873;28;20495;-89
2022/07/16 11:12:21;;;;;;;2.43;2.23;;;24.80;70.00;;;;;;5005452;28;20444;-89
2022/07/16 11:14:53;;;;;;;3.10;2.90;;;25.00;62.80;;;;;;4987644;28;20510;-89
2022/07/16 11:17:22;;;;;;;2.80;2.60;;;25.20;62.80;;;;;;5001217;28;20461;-90
2022/07/16 11:19:51;;;;;;;4.60;2.60;;;25.60;64.50;;;;;;4967990;28;20457;-89
2022/07/16 11:22:21;;;;;;;4.00;3.70;;;25.90;64.80;;;;;;5000310;28;21235;-89
2022/07/16 11:24:53;;;;;;;2.27;2.07;;;25.70;61.10;;;;;;4968066;28;20468;-90
2022/07/16 11:27:32;;;;;;;3.97;3.67;;;25.50;61.70;;;;;;5003909;28;20498;-89
2022/07/16 11:30:00;;;;;;;2.50;2.27;;;25.70;61.60;;;;;;5006588;28;20485;-90
2022/07/16 11:32:27;;;;;;;4.30;2.30;;;25.80;59.70;;;;;;5018707;28;20480;-89
2022/07/16 11:34:53;;;;;;;3.43;2.70;;;25.80;61.60;;;;;;4985393;28;20890;-89
2022/07/16 11:37:20;;;;;;;2.43;1.97;;;26.00;59.80;;;;;;4986338;28;20804;-89
2022/07/16 11:39:46;;;;;;;2.90;2.63;;;26.40;60.20;;;;;;5003708;28;20440;-90
2022/07/16 11:42:12;;;;;;;2.70;2.50;;;26.80;60.20;;;;;;4986423;28;20478;-88
2022/07/16 11:44:41;;;;;;;2.27;2.07;;;26.60;63.20;;;;;;4972766;28;20275;-88
2022/07/16 11:47:09;;;;;;;3.10;2.60;;;26.70;62.90;;;;;;4982748;28;20216;-87
2022/07/16 11:49:38;;;;;;;2.30;1.97;;;26.20;56.60;;;;;;4980355;28;20452;-90
2022/07/16 11:52:24;;;;;;;2.07;1.87;;;25.70;58.30;;;;;;5006068;28;21036;-90
2022/07/16 11:54:51;;;;;;;3.47;2.33;;;26.00;60.00;;;;;;4988700;28;20501;-88
2022/07/16 11:57:17;;;;;;;2.43;2.23;;;26.10;57.80;;;;;;5013700;28;20453;-90
2022/07/16 11:59:47;;;;;;;2.10;2.00;;;26.40;58.00;;;;;;4990582;28;20436;-89
2022/07/16 12:02:16;;;;;;;2.10;1.83;;;27.10;53.90;;;;;;4984125;28;20476;-89
2022/07/16 12:04:54;;;;;;;2.20;2.10;;;26.60;58.60;;;;;;4983646;28;20447;-88
2022/07/16 12:07:26;;;;;;;2.67;2.47;;;26.10;54.40;;;;;;4990824;28;20416;-89
2022/07/16 12:09:54;;;;;;;2.30;2.10;;;26.20;57.00;;;;;;4981370;28;20456;-89
2022/07/16 12:12:22;;;;;;;2.70;2.30;;;26.60;60.60;;;;;;4999363;28;20471;-90
2022/07/16 12:15:13;;;;;;;2.97;2.03;;;26.90;56.90;;;;;;4991768;28;20438;-89
2022/07/16 12:17:41;;;;;;;2.50;2.30;;;27.00;57.30;;;;;;5005486;28;20538;-88
2022/07/16 12:20:14;;;;;;;2.30;2.10;;;27.40;55.90;;;;;;4987421;28;20949;-88
2022/07/16 12:23:05;;;;;;;2.00;1.90;;;27.80;56.20;;;;;;5000539;28;20475;-88
2022/07/16 12:25:37;;;;;;;2.00;1.90;;;27.90;56.80;;;;;;4982003;28;20538;-90
2022/07/16 12:28:21;;;;;;;2.20;2.00;;;28.00;56.30;;;;;;4994069;28;20600;-90
2022/07/16 12:31:19;;;;;;;3.87;2.10;;;28.20;55.80;;;;;;5004311;28;20831;-88
2022/07/16 12:33:50;;;;;;;2.03;1.83;;;27.70;51.70;;;;;;4950060;28;20902;-89
2022/07/16 12:36:18;;;;;;;2.03;1.80;;;27.20;52.50;;;;;;5007264;28;20804;-89
2022/07/16 12:39:02;;;;;;;2.80;2.00;;;26.70;52.90;;;;;;4985688;28;20627;-88
2022/07/16 12:41:39;;;;;;;2.00;1.77;;;26.90;56.30;;;;;;4984516;28;20453;-89
2022/07/16 12:44:18;;;;;;;6.10;2.00;;;27.30;56.20;;;;;;4992009;28;20459;-89
2022/07/16 12:46:49;;;;;;;1.70;1.60;;;27.60;53.90;;;;;;4969874;28;20431;-89
2022/07/16 12:49:17;;;;;;;1.50;1.40;;;27.50;51.40;;;;;;4976322;28;20447;-89
2022/07/16 12:51:46;;;;;;;1.93;1.73;;;27.50;53.80;;;;;;4973646;28;20447;-89
2022/07/16 12:54:13;;;;;;;2.30;1.73;;;27.60;52.40;;;;;;5007495;28;20479;-89
2022/07/16 12:59:24;;;;;;;1.97;1.87;;;28.20;49.00;;;;;;4993555;28;20586;-89